createdAt,value
2018-07-09T00:00:29.179Z,26.81
2018-07-09T00:01:38.865Z,26.81
2018-07-09T00:02:47.774Z,26.7
2018-07-09T00:03:56.678Z,26.77
2018-07-09T00:05:06.619Z,26.69
2018-07-09T00:06:15.584Z,26.72
2018-07-09T00:07:25.006Z,26.8
2018-07-09T00:08:34.416Z,26.75
2018-07-09T00:09:43.863Z,26.76
2018-07-09T00:10:53.286Z,26.73
2018-07-09T00:12:02.722Z,26.72
2018-07-09T00:13:12.179Z,26.81
2018-07-09T00:14:21.587Z,26.7
2018-07-09T00:15:31.263Z,26.73
2018-07-09T00:16:40.929Z,26.69
2018-07-09T00:17:50.862Z,26.73
2018-07-09T00:19:00.271Z,26.7
2018-07-09T00:20:09.433Z,26.81
2018-07-09T00:21:19.126Z,26.72
2018-07-09T00:22:27.782Z,26.77
2018-07-09T00:23:36.950Z,26.72
2018-07-09T00:24:46.888Z,26.76
2018-07-09T00:25:56.033Z,26.81
2018-07-09T00:27:05.450Z,26.7
2018-07-09T00:28:14.606Z,26.7
2018-07-09T00:29:23.766Z,26.75
2018-07-09T00:30:33.458Z,26.72
2018-07-09T00:31:42.874Z,26.75
2018-07-09T00:32:52.292Z,26.7
2018-07-09T00:34:01.721Z,26.7
2018-07-09T00:35:10.895Z,26.77
2018-07-09T00:36:20.326Z,26.7
2018-07-09T00:37:30.011Z,26.72
2018-07-09T00:38:39.695Z,26.82
2018-07-09T00:39:49.375Z,26.72
2018-07-09T00:40:58.526Z,26.73
2018-07-09T00:42:08.183Z,26.73
2018-07-09T00:43:17.360Z,26.7
2018-07-09T00:44:26.511Z,26.75
2018-07-09T00:45:35.669Z,26.69
2018-07-09T00:46:45.075Z,26.72
2018-07-09T00:47:54.499Z,26.75
2018-07-09T00:49:03.653Z,26.7
2018-07-09T00:50:13.080Z,26.62
2018-07-09T00:51:22.483Z,26.66
2018-07-09T00:52:32.418Z,26.63
2018-07-09T00:53:41.569Z,26.76
2018-07-09T00:54:50.735Z,26.75
2018-07-09T00:56:00.165Z,26.72
2018-07-09T00:57:09.321Z,26.67
2018-07-09T00:58:18.751Z,26.58
2018-07-09T00:59:27.917Z,26.63
2018-07-09T01:00:37.314Z,26.62
2018-07-09T01:01:46.207Z,26.58
2018-07-09T01:02:55.630Z,26.63
2018-07-09T01:04:04.780Z,26.63
2018-07-09T01:05:14.217Z,26.65
2018-07-09T01:06:23.374Z,26.67
2018-07-09T01:07:32.603Z,26.57
2018-07-09T01:08:41.761Z,26.6
2018-07-09T01:09:51.185Z,26.57
2018-07-09T01:11:01.126Z,26.6
2018-07-09T01:12:10.656Z,26.55
2018-07-09T01:13:20.339Z,26.57
2018-07-09T01:14:30.015Z,26.58
2018-07-09T01:15:39.169Z,26.58
2018-07-09T01:16:48.567Z,26.51
2018-07-09T01:17:58.501Z,26.54
2018-07-09T01:19:07.677Z,26.54
2018-07-09T01:20:17.410Z,26.55
2018-07-09T01:21:26.308Z,26.5
2018-07-09T01:22:36.021Z,26.48
2018-07-09T01:23:45.191Z,26.51
2018-07-09T01:24:54.370Z,26.45
2018-07-09T01:26:03.808Z,26.48
2018-07-09T01:27:12.954Z,26.44
2018-07-09T01:28:22.382Z,26.47
2018-07-09T01:29:32.323Z,26.44
2018-07-09T01:30:42.011Z,26.43
2018-07-09T01:31:51.415Z,26.45
2018-07-09T01:33:00.568Z,26.48
2018-07-09T01:34:10.225Z,26.45
2018-07-09T01:35:19.645Z,26.45
2018-07-09T01:36:28.790Z,26.37
2018-07-09T01:37:37.935Z,26.43
2018-07-09T01:38:47.106Z,26.44
2018-07-09T01:39:56.520Z,26.44
2018-07-09T01:41:06.616Z,26.43
2018-07-09T01:42:16.030Z,26.44
2018-07-09T01:43:25.189Z,26.36
2018-07-09T01:44:34.615Z,26.36
2018-07-09T01:45:44.291Z,26.39
2018-07-09T01:46:53.701Z,26.35
2018-07-09T01:48:02.605Z,26.33
2018-07-09T01:49:12.047Z,26.35
2018-07-09T01:50:21.210Z,26.3
2018-07-09T01:51:30.625Z,26.4
2018-07-09T01:52:39.780Z,26.33
2018-07-09T01:53:49.453Z,26.28
2018-07-09T01:54:58.599Z,26.32
2018-07-09T01:56:07.774Z,26.3
2018-07-09T01:57:16.932Z,26.32
2018-07-09T01:58:26.353Z,26.32
2018-07-09T01:59:36.296Z,26.33
2018-07-09T02:00:45.461Z,26.26
2018-07-09T02:01:55.395Z,26.26
2018-07-09T02:03:05.316Z,26.32
2018-07-09T02:04:14.744Z,26.25
2018-07-09T02:05:23.902Z,26.25
2018-07-09T02:06:33.062Z,26.21
2018-07-09T02:07:42.725Z,26.26
2018-07-09T02:08:52.144Z,26.2
2018-07-09T02:10:01.548Z,26.26
2018-07-09T02:11:10.715Z,26.28
2018-07-09T02:12:20.133Z,26.26
2018-07-09T02:13:29.033Z,26.25
2018-07-09T02:14:38.444Z,26.26
2018-07-09T02:15:48.135Z,26.2
2018-07-09T02:16:57.295Z,26.2
2018-07-09T02:18:06.186Z,26.21
2018-07-09T02:19:15.595Z,26.2
2018-07-09T02:20:24.828Z,26.1
2018-07-09T02:21:34.591Z,26.1
2018-07-09T02:22:44.510Z,26.17
2018-07-09T02:23:54.191Z,26.06
2018-07-09T02:25:03.618Z,26.2
2018-07-09T02:26:13.034Z,26.09
2018-07-09T02:27:22.445Z,26.06
2018-07-09T02:28:31.857Z,26.13
2018-07-09T02:29:41.538Z,26.12
2018-07-09T02:30:51.211Z,26.07
2018-07-09T02:32:00.890Z,26.13
2018-07-09T02:33:10.043Z,26.1
2018-07-09T02:34:19.737Z,26.13
2018-07-09T02:35:29.679Z,26.15
2018-07-09T02:36:38.846Z,26.12
2018-07-09T02:37:48.452Z,25.99
2018-07-09T02:38:58.125Z,26.13
2018-07-09T02:40:07.535Z,26.13
2018-07-09T02:41:16.454Z,25.97
2018-07-09T02:42:26.127Z,26.01
2018-07-09T02:43:35.556Z,26.07
2018-07-09T02:44:45.234Z,26.01
2018-07-09T02:45:55.162Z,26.01
2018-07-09T02:47:04.592Z,25.99
2018-07-09T02:48:13.497Z,25.99
2018-07-09T02:49:23.040Z,26.12
2018-07-09T02:50:32.709Z,26.06
2018-07-09T02:51:42.410Z,25.99
2018-07-09T02:52:51.816Z,26.09
2018-07-09T02:54:01.795Z,25.99
2018-07-09T02:55:11.229Z,25.97
2018-07-09T02:56:20.667Z,25.95
2018-07-09T02:57:30.340Z,26.01
2018-07-09T02:58:39.549Z,26.05
2018-07-09T02:59:48.980Z,26.07
2018-07-09T03:00:58.541Z,26.06
2018-07-09T03:02:08.206Z,26.09
2018-07-09T03:03:17.647Z,26.09
2018-07-09T03:04:27.353Z,26.06
2018-07-09T03:05:36.805Z,25.92
2018-07-09T03:06:46.736Z,25.92
2018-07-09T03:07:56.405Z,25.94
2018-07-09T03:09:05.339Z,25.91
2018-07-09T03:10:15.019Z,25.99
2018-07-09T03:11:24.455Z,25.97
2018-07-09T03:12:33.882Z,25.94
2018-07-09T03:13:43.555Z,25.97
2018-07-09T03:14:52.972Z,25.94
2018-07-09T03:16:02.389Z,25.91
2018-07-09T03:17:12.107Z,25.94
2018-07-09T03:18:22.030Z,25.94
2018-07-09T03:19:31.227Z,25.9
2018-07-09T03:20:40.138Z,25.88
2018-07-09T03:21:49.582Z,25.85
2018-07-09T03:22:59.014Z,25.92
2018-07-09T03:24:08.453Z,25.91
2018-07-09T03:25:18.135Z,25.88
2018-07-09T03:26:27.862Z,25.95
2018-07-09T03:27:37.776Z,25.9
2018-07-09T03:28:47.264Z,25.87
2018-07-09T03:29:56.965Z,25.92
2018-07-09T03:31:06.381Z,25.82
2018-07-09T03:32:15.539Z,25.9
2018-07-09T03:33:24.688Z,25.87
2018-07-09T03:34:34.090Z,25.85
2018-07-09T03:35:43.766Z,25.83
2018-07-09T03:36:53.179Z,25.87
2018-07-09T03:38:02.605Z,25.79
2018-07-09T03:39:11.765Z,25.8
2018-07-09T03:40:21.168Z,25.8
2018-07-09T03:41:30.833Z,25.79
2018-07-09T03:42:40.236Z,25.77
2018-07-09T03:43:49.639Z,25.9
2018-07-09T03:44:58.552Z,25.77
2018-07-09T03:46:08.268Z,25.85
2018-07-09T03:47:17.922Z,25.82
2018-07-09T03:48:26.845Z,25.77
2018-07-09T03:49:36.772Z,25.79
2018-07-09T03:50:45.924Z,25.8
2018-07-09T03:51:55.075Z,25.82
2018-07-09T03:53:04.505Z,25.77
2018-07-09T03:54:13.942Z,25.79
2018-07-09T03:55:23.609Z,25.77
2018-07-09T03:56:32.768Z,25.73
2018-07-09T03:57:41.671Z,25.79
2018-07-09T03:58:51.347Z,25.73
2018-07-09T04:00:00.756Z,25.75
2018-07-09T04:01:10.460Z,25.69
2018-07-09T04:02:20.046Z,25.75
2018-07-09T04:03:30.217Z,25.77
2018-07-09T04:04:39.383Z,25.75
2018-07-09T04:05:48.814Z,25.73
2018-07-09T04:06:58.219Z,25.75
2018-07-09T04:08:07.644Z,25.75
2018-07-09T04:09:17.073Z,25.7
2018-07-09T04:10:26.505Z,25.72
2018-07-09T04:11:35.932Z,25.77
2018-07-09T04:12:45.336Z,25.72
2018-07-09T04:13:54.764Z,25.73
2018-07-09T04:15:03.678Z,25.73
2018-07-09T04:16:13.088Z,25.77
2018-07-09T04:17:23.031Z,25.7
2018-07-09T04:18:32.203Z,25.75
2018-07-09T04:19:41.611Z,25.65
2018-07-09T04:20:50.839Z,25.73
2018-07-09T04:22:00.780Z,25.7
2018-07-09T04:23:10.460Z,25.7
2018-07-09T04:24:19.889Z,25.7
2018-07-09T04:25:29.583Z,25.69
2018-07-09T04:26:38.999Z,25.76
2018-07-09T04:27:48.673Z,25.67
2018-07-09T04:28:57.868Z,25.65
2018-07-09T04:30:07.087Z,25.64
2018-07-09T04:31:16.283Z,25.73
2018-07-09T04:32:25.451Z,25.67
2018-07-09T04:33:34.357Z,25.67
2018-07-09T04:34:43.515Z,25.65
2018-07-09T04:35:53.448Z,25.69
2018-07-09T04:37:02.366Z,25.67
2018-07-09T04:38:11.801Z,25.64
2018-07-09T04:39:21.473Z,25.65
2018-07-09T04:40:31.182Z,25.62
2018-07-09T04:41:40.608Z,25.69
2018-07-09T04:42:50.077Z,25.67
2018-07-09T04:43:59.282Z,25.67
2018-07-09T04:45:08.438Z,25.54
2018-07-09T04:46:17.868Z,25.6
2018-07-09T04:47:27.292Z,25.6
2018-07-09T04:48:36.716Z,25.57
2018-07-09T04:49:46.374Z,25.57
2018-07-09T04:50:55.271Z,25.6
2018-07-09T04:52:04.704Z,25.57
2018-07-09T04:53:14.143Z,25.67
2018-07-09T04:54:23.554Z,25.55
2018-07-09T04:55:32.983Z,25.52
2018-07-09T04:56:42.400Z,25.61
2018-07-09T04:57:51.576Z,25.55
2018-07-09T04:59:01.002Z,25.55
2018-07-09T05:00:10.438Z,25.54
2018-07-09T05:01:19.859Z,25.54
2018-07-09T05:02:29.284Z,25.52
2018-07-09T05:03:38.958Z,25.54
2018-07-09T05:04:48.138Z,25.51
2018-07-09T05:05:57.827Z,25.55
2018-07-09T05:07:07.514Z,25.55
2018-07-09T05:08:17.222Z,25.5
2018-07-09T05:09:26.676Z,25.6
2018-07-09T05:10:35.770Z,25.52
2018-07-09T05:11:45.194Z,25.67
2018-07-09T05:12:54.176Z,25.54
2018-07-09T05:14:03.701Z,25.58
2018-07-09T05:15:12.861Z,25.6
2018-07-09T05:16:21.803Z,25.52
2018-07-09T05:17:30.962Z,25.62
2018-07-09T05:18:40.136Z,25.57
2018-07-09T05:19:49.298Z,25.54
2018-07-09T05:20:58.486Z,25.54
2018-07-09T05:22:07.377Z,25.42
2018-07-09T05:23:17.049Z,25.45
2018-07-09T05:24:26.483Z,25.51
2018-07-09T05:25:35.915Z,25.51
2018-07-09T05:26:45.354Z,25.47
2018-07-09T05:27:54.781Z,25.47
2018-07-09T05:29:03.941Z,25.46
2018-07-09T05:30:12.837Z,25.55
2018-07-09T05:31:22.511Z,25.57
2018-07-09T05:32:31.671Z,25.51
2018-07-09T05:33:40.575Z,25.52
2018-07-09T05:34:50.262Z,25.58
2018-07-09T05:35:59.946Z,25.47
2018-07-09T05:37:09.124Z,25.58
2018-07-09T05:38:18.808Z,25.57
2018-07-09T05:39:28.486Z,25.57
2018-07-09T05:40:38.426Z,25.46
2018-07-09T05:41:48.084Z,25.52
2018-07-09T05:42:57.497Z,25.57
2018-07-09T05:44:06.903Z,25.55
2018-07-09T05:45:16.822Z,25.52
2018-07-09T05:46:25.975Z,25.54
2018-07-09T05:47:35.147Z,25.51
2018-07-09T05:48:44.809Z,25.47
2018-07-09T05:49:54.478Z,25.51
2018-07-09T05:51:03.904Z,25.47
2018-07-09T05:52:13.321Z,25.51
2018-07-09T05:53:23.105Z,25.52
2018-07-09T05:54:33.116Z,25.46
2018-07-09T05:55:42.807Z,25.55
2018-07-09T05:56:52.484Z,25.54
2018-07-09T05:58:01.648Z,25.51
2018-07-09T05:59:11.337Z,25.58
2018-07-09T06:00:20.244Z,25.55
2018-07-09T06:01:29.675Z,25.61
2018-07-09T06:02:39.112Z,25.58
2018-07-09T06:03:48.519Z,25.64
2018-07-09T06:04:58.199Z,25.54
2018-07-09T06:06:07.364Z,25.65
2018-07-09T06:07:17.284Z,25.61
2018-07-09T06:08:26.955Z,25.65
2018-07-09T06:09:36.642Z,25.73
2018-07-09T06:10:46.323Z,25.69
2018-07-09T06:11:55.739Z,25.69
2018-07-09T06:13:04.909Z,25.72
2018-07-09T06:14:13.828Z,25.77
2018-07-09T06:15:23.233Z,25.76
2018-07-09T06:16:32.912Z,25.77
2018-07-09T06:17:42.389Z,25.8
2018-07-09T06:18:51.563Z,25.8
2018-07-09T06:20:00.988Z,25.9
2018-07-09T06:21:10.184Z,25.85
2018-07-09T06:22:19.613Z,25.92
2018-07-09T06:23:29.026Z,25.87
2018-07-09T06:24:38.952Z,25.91
2018-07-09T06:25:48.111Z,25.92
2018-07-09T06:26:57.556Z,25.9
2018-07-09T06:28:07.240Z,25.91
2018-07-09T06:29:16.666Z,25.95
2018-07-09T06:30:25.856Z,25.91
2018-07-09T06:31:35.489Z,25.94
2018-07-09T06:32:44.804Z,25.94
2018-07-09T06:33:54.536Z,25.88
2018-07-09T06:35:03.962Z,25.95
2018-07-09T06:36:13.905Z,25.95
2018-07-09T06:37:23.614Z,25.97
2018-07-09T06:38:33.013Z,25.94
2018-07-09T06:39:42.696Z,25.95
2018-07-09T06:40:52.116Z,25.97
2018-07-09T06:42:02.057Z,25.94
2018-07-09T06:43:12.030Z,25.98
2018-07-09T06:44:20.924Z,25.97
2018-07-09T06:45:30.098Z,25.91
2018-07-09T06:46:39.522Z,25.91
2018-07-09T06:47:48.929Z,25.91
2018-07-09T06:48:58.101Z,25.97
2018-07-09T06:50:07.253Z,26.02
2018-07-09T06:51:16.942Z,25.97
2018-07-09T06:52:26.102Z,25.92
2018-07-09T06:53:35.260Z,25.92
2018-07-09T06:54:44.979Z,25.97
2018-07-09T06:55:54.544Z,25.95
2018-07-09T06:57:04.102Z,25.94
2018-07-09T06:58:13.263Z,26.06
2018-07-09T06:59:22.995Z,25.99
2018-07-09T07:00:32.174Z,26.06
2018-07-09T07:01:41.345Z,25.97
2018-07-09T07:02:50.769Z,26.02
2018-07-09T07:04:00.755Z,25.98
2018-07-09T07:05:10.425Z,26.07
2018-07-09T07:06:19.589Z,25.94
2018-07-09T07:07:29.002Z,26.01
2018-07-09T07:08:38.523Z,26.07
2018-07-09T07:09:48.014Z,25.99
2018-07-09T07:10:57.685Z,26.09
2018-07-09T07:12:07.626Z,26.02
2018-07-09T07:13:17.067Z,26.12
2018-07-09T07:14:26.686Z,26.13
2018-07-09T07:15:36.536Z,26.13
2018-07-09T07:16:45.960Z,26.12
2018-07-09T07:17:54.855Z,26.2
2018-07-09T07:19:04.257Z,26.12
2018-07-09T07:20:13.431Z,26.2
2018-07-09T07:21:23.119Z,26.28
2018-07-09T07:22:33.100Z,26.23
2018-07-09T07:23:42.526Z,26.26
2018-07-09T07:24:51.436Z,26.2
2018-07-09T07:26:00.857Z,26.17
2018-07-09T07:27:10.550Z,26.21
2018-07-09T07:28:19.703Z,26.26
2018-07-09T07:29:28.885Z,26.21
2018-07-09T07:30:38.583Z,26.21
2018-07-09T07:31:48.528Z,26.28
2018-07-09T07:32:57.949Z,26.25
2018-07-09T07:34:07.376Z,26.26
2018-07-09T07:35:16.544Z,26.29
2018-07-09T07:36:25.698Z,26.33
2018-07-09T07:37:35.638Z,26.29
2018-07-09T07:38:45.079Z,26.29
2018-07-09T07:39:55.007Z,26.28
2018-07-09T07:41:04.691Z,26.21
2018-07-09T07:42:13.862Z,26.33
2018-07-09T07:43:23.801Z,26.32
2018-07-09T07:44:33.491Z,26.35
2018-07-09T07:45:42.660Z,26.23
2018-07-09T07:46:52.082Z,26.28
2018-07-09T07:48:01.749Z,26.3
2018-07-09T07:49:11.482Z,26.25
2018-07-09T07:50:21.061Z,26.33
2018-07-09T07:51:30.657Z,26.32
2018-07-09T07:52:40.092Z,26.28
2018-07-09T07:53:49.241Z,26.33
2018-07-09T07:54:58.665Z,26.35
2018-07-09T07:56:08.077Z,26.3
2018-07-09T07:57:17.492Z,26.35
2018-07-09T07:58:26.404Z,26.36
2018-07-09T07:59:36.096Z,26.32
2018-07-09T08:00:45.032Z,26.32
2018-07-09T08:01:55.040Z,26.36
2018-07-09T08:03:04.633Z,26.37
2018-07-09T08:04:14.285Z,26.37
2018-07-09T08:05:24.222Z,26.32
2018-07-09T08:06:33.638Z,26.33
2018-07-09T08:07:42.540Z,26.37
2018-07-09T08:08:52.211Z,26.39
2018-07-09T08:10:01.380Z,26.36
2018-07-09T08:11:16.031Z,26.4
2018-07-09T08:13:27.992Z,26.4
2018-07-09T08:14:37.861Z,26.36
2018-07-09T08:15:47.333Z,26.36
2018-07-09T08:16:57.053Z,26.4
2018-07-09T08:18:06.708Z,26.37
2018-07-09T08:19:16.127Z,26.39
2018-07-09T08:20:25.351Z,26.36
2018-07-09T08:21:34.769Z,26.35
2018-07-09T08:22:43.677Z,26.4
2018-07-09T08:23:53.362Z,26.43
2018-07-09T08:25:03.276Z,26.36
2018-07-09T08:26:12.671Z,26.36
2018-07-09T08:27:22.099Z,26.43
2018-07-09T08:28:31.552Z,26.47
2018-07-09T08:29:41.238Z,26.48
2018-07-09T08:30:50.403Z,26.47
2018-07-09T08:32:00.128Z,26.44
2018-07-09T08:33:09.817Z,26.48
2018-07-09T08:34:18.732Z,26.43
2018-07-09T08:35:28.657Z,26.47
2018-07-09T08:36:38.086Z,26.45
2018-07-09T08:37:47.796Z,26.47
2018-07-09T08:38:57.787Z,26.44
2018-07-09T08:40:07.476Z,26.48
2018-07-09T08:41:16.385Z,26.43
2018-07-09T08:42:25.586Z,26.44
2018-07-09T08:43:35.011Z,26.43
2018-07-09T08:44:44.442Z,26.43
2018-07-09T08:45:53.107Z,26.48
2018-07-09T08:47:02.529Z,26.43
2018-07-09T08:48:11.441Z,26.45
2018-07-09T08:49:20.870Z,26.48
2018-07-09T08:50:30.559Z,26.4
2018-07-09T08:51:39.983Z,26.44
2018-07-09T08:52:49.133Z,26.48
2018-07-09T08:53:58.554Z,26.45
2018-07-09T08:55:07.961Z,26.44
2018-07-09T08:56:17.901Z,26.47
2018-07-09T08:57:27.070Z,26.48
2018-07-09T08:58:36.513Z,26.45
2018-07-09T08:59:45.683Z,26.43
2018-07-09T09:00:55.100Z,26.45
2018-07-09T09:02:04.507Z,26.4
2018-07-09T09:03:13.929Z,26.45
2018-07-09T09:04:23.382Z,26.43
2018-07-09T09:05:33.061Z,26.5
2018-07-09T09:06:42.514Z,26.48
2018-07-09T09:07:52.196Z,26.51
2018-07-09T09:09:01.874Z,26.5
2018-07-09T09:10:12.084Z,26.45
2018-07-09T09:11:21.466Z,26.44
2018-07-09T09:12:30.632Z,26.52
2018-07-09T09:13:40.761Z,26.51
2018-07-09T09:14:50.429Z,26.5
2018-07-09T09:16:00.119Z,26.51
2018-07-09T09:17:09.283Z,26.45
2018-07-09T09:18:18.192Z,26.48
2018-07-09T09:19:27.904Z,26.51
2018-07-09T09:20:37.329Z,26.44
2018-07-09T09:21:47.024Z,26.52
2018-07-09T09:22:56.564Z,26.52
2018-07-09T09:24:05.988Z,26.52
2018-07-09T09:25:15.146Z,26.48
2018-07-09T09:26:24.584Z,26.51
2018-07-09T09:27:34.511Z,26.51
2018-07-09T09:28:43.922Z,26.54
2018-07-09T09:29:53.094Z,26.54
2018-07-09T09:31:02.507Z,26.57
2018-07-09T09:32:11.769Z,26.51
2018-07-09T09:33:21.451Z,26.55
2018-07-09T09:34:30.613Z,26.54
2018-07-09T09:35:40.034Z,26.5
2018-07-09T09:36:49.450Z,26.52
2018-07-09T09:37:58.875Z,26.55
2018-07-09T09:39:08.285Z,26.58
2018-07-09T09:40:17.449Z,26.51
2018-07-09T09:41:26.872Z,26.55
2018-07-09T09:42:36.542Z,26.51
2018-07-09T09:43:46.224Z,26.58
2018-07-09T09:44:55.384Z,26.57
2018-07-09T09:46:04.799Z,26.52
2018-07-09T09:47:14.852Z,26.57
2018-07-09T09:48:24.289Z,26.54
2018-07-09T09:49:33.204Z,26.47
2018-07-09T09:50:42.882Z,26.57
2018-07-09T09:51:52.310Z,26.55
2018-07-09T09:53:01.740Z,26.6
2018-07-09T09:54:11.140Z,26.52
2018-07-09T09:55:20.579Z,26.57
2018-07-09T09:56:30.257Z,26.54
2018-07-09T09:57:39.425Z,26.6
2018-07-09T09:58:48.855Z,26.57
2018-07-09T09:59:58.280Z,26.54
2018-07-09T10:01:07.961Z,26.62
2018-07-09T10:02:17.138Z,26.54
2018-07-09T10:03:26.283Z,26.62
2018-07-09T10:04:35.478Z,26.57
2018-07-09T10:05:45.138Z,26.6
2018-07-09T10:06:55.082Z,26.58
2018-07-09T10:08:05.041Z,26.5
2018-07-09T10:09:13.950Z,26.55
2018-07-09T10:10:23.130Z,26.55
2018-07-09T10:11:32.057Z,26.58
2018-07-09T10:12:41.985Z,26.58
2018-07-09T10:13:51.173Z,26.52
2018-07-09T10:15:00.843Z,26.57
2018-07-09T10:16:10.014Z,26.57
2018-07-09T10:17:19.697Z,26.63
2018-07-09T10:18:29.639Z,26.58
2018-07-09T10:19:39.320Z,26.51
2018-07-09T10:20:48.234Z,26.57
2018-07-09T10:21:58.580Z,26.54
2018-07-09T10:23:08.308Z,26.6
2018-07-09T10:24:18.742Z,26.52
2018-07-09T10:25:28.670Z,26.54
2018-07-09T10:26:37.565Z,26.55
2018-07-09T10:27:48.581Z,26.58
2018-07-09T10:28:58.091Z,26.63
2018-07-09T10:30:07.767Z,26.54
2018-07-09T10:31:17.444Z,26.52
2018-07-09T10:32:27.023Z,26.58
2018-07-09T10:33:36.455Z,26.62
2018-07-09T10:34:46.137Z,26.51
2018-07-09T10:35:55.815Z,26.55
2018-07-09T10:37:05.028Z,26.63
2018-07-09T10:38:14.694Z,26.6
2018-07-09T10:39:24.178Z,26.62
2018-07-09T10:40:33.711Z,26.62
2018-07-09T10:41:43.385Z,26.66
2018-07-09T10:42:52.817Z,26.52
2018-07-09T10:44:02.225Z,26.62
2018-07-09T10:45:11.122Z,26.55
2018-07-09T10:46:20.574Z,26.55
2018-07-09T10:47:29.478Z,26.57
2018-07-09T10:48:38.905Z,26.62
2018-07-09T10:49:48.309Z,26.51
2018-07-09T10:50:57.984Z,26.58
2018-07-09T10:52:07.930Z,26.62
2018-07-09T10:53:17.854Z,26.54
2018-07-09T10:54:27.520Z,26.57
2018-07-09T10:55:36.669Z,26.58
2018-07-09T10:56:46.098Z,26.62
2018-07-09T10:57:55.757Z,26.65
2018-07-09T10:59:05.175Z,26.62
2018-07-09T11:00:14.361Z,26.62
2018-07-09T11:01:24.060Z,26.6
2018-07-09T11:02:33.485Z,26.6
2018-07-09T11:03:43.180Z,26.54
2018-07-09T11:04:52.340Z,26.67
2018-07-09T11:06:01.776Z,26.66
2018-07-09T11:07:11.198Z,26.58
2018-07-09T11:08:20.862Z,26.62
2018-07-09T11:09:30.524Z,26.65
2018-07-09T11:10:39.982Z,26.62
2018-07-09T11:11:49.917Z,26.7
2018-07-09T11:12:59.064Z,26.63
2018-07-09T11:14:08.229Z,26.58
2018-07-09T11:15:17.655Z,26.67
2018-07-09T11:16:27.229Z,26.57
2018-07-09T11:17:36.903Z,26.67
2018-07-09T11:18:46.584Z,26.67
2018-07-09T11:19:56.263Z,26.66
2018-07-09T11:21:05.701Z,26.57
2018-07-09T11:22:14.599Z,26.67
2018-07-09T11:23:24.016Z,26.63
2018-07-09T11:24:33.186Z,26.66
2018-07-09T11:25:42.598Z,26.67
2018-07-09T11:26:52.605Z,26.66
2018-07-09T11:28:01.790Z,26.65
2018-07-09T11:29:11.265Z,26.66
2018-07-09T11:30:21.065Z,26.66
2018-07-09T11:31:30.785Z,26.63
2018-07-09T11:32:39.953Z,26.66
2018-07-09T11:33:49.385Z,26.6
2018-07-09T11:34:59.044Z,26.65
2018-07-09T11:36:08.134Z,26.66
2018-07-09T11:37:17.896Z,26.67
2018-07-09T11:38:26.802Z,26.65
2018-07-09T11:39:35.974Z,26.7
2018-07-09T11:40:44.877Z,26.66
2018-07-09T11:41:54.548Z,26.67
2018-07-09T11:43:04.241Z,26.66
2018-07-09T11:44:13.399Z,26.63
2018-07-09T11:45:22.308Z,26.66
2018-07-09T11:46:31.999Z,26.62
2018-07-09T11:47:41.656Z,26.65
2018-07-09T11:48:51.070Z,26.63
2018-07-09T11:50:00.745Z,26.7
2018-07-09T11:51:09.905Z,26.67
2018-07-09T11:52:19.159Z,26.7
2018-07-09T11:53:28.567Z,26.67
2018-07-09T11:54:37.728Z,26.63
2018-07-09T11:55:46.921Z,26.69
2018-07-09T11:56:56.077Z,26.6
2018-07-09T11:58:04.715Z,26.66
2018-07-09T11:59:14.187Z,26.58
2018-07-09T12:00:23.617Z,26.58
2018-07-09T12:01:33.038Z,26.65
2018-07-09T12:02:42.997Z,26.63
2018-07-09T12:03:51.901Z,26.63
2018-07-09T12:05:00.820Z,26.63
2018-07-09T12:06:10.242Z,26.6
2018-07-09T12:07:19.647Z,26.63
2018-07-09T12:08:29.073Z,26.63
2018-07-09T12:09:38.220Z,26.67
2018-07-09T12:10:47.392Z,26.6
2018-07-09T12:11:56.820Z,26.66
2018-07-09T12:13:05.990Z,26.63
2018-07-09T12:14:15.431Z,26.65
2018-07-09T12:15:24.873Z,26.62
2018-07-09T12:16:34.557Z,26.66
2018-07-09T12:17:43.967Z,26.58
2018-07-09T12:18:53.151Z,26.65
2018-07-09T12:20:02.816Z,26.6
2018-07-09T12:21:12.495Z,26.65
2018-07-09T12:22:22.285Z,26.63
2018-07-09T12:23:31.433Z,26.65
2018-07-09T12:24:40.348Z,26.67
2018-07-09T12:25:50.013Z,26.65
2018-07-09T12:26:59.003Z,26.6
2018-07-09T12:28:08.500Z,26.67
2018-07-09T12:29:18.286Z,26.66
2018-07-09T12:30:27.966Z,26.66
2018-07-09T12:31:37.120Z,26.66
2018-07-09T12:32:46.545Z,26.63
2018-07-09T12:33:55.976Z,26.67
2018-07-09T12:35:05.140Z,26.66
2018-07-09T12:36:14.966Z,26.67
2018-07-09T12:37:25.168Z,26.66
2018-07-09T12:38:34.079Z,26.63
2018-07-09T12:39:43.492Z,26.63
2018-07-09T12:40:52.925Z,26.65
2018-07-09T12:42:01.854Z,26.6
2018-07-09T12:43:11.280Z,26.67
2018-07-09T12:44:20.704Z,26.67
2018-07-09T12:45:30.144Z,26.66
2018-07-09T12:46:40.077Z,26.65
2018-07-09T12:47:49.235Z,26.62
2018-07-09T12:48:58.906Z,26.67
2018-07-09T12:50:08.327Z,26.67
2018-07-09T12:51:18.011Z,26.67
2018-07-09T12:52:27.682Z,26.66
2018-07-09T12:53:36.900Z,26.66
2018-07-09T12:54:46.325Z,26.69
2018-07-09T12:55:56.045Z,26.7
2018-07-09T12:57:05.991Z,26.6
2018-07-09T12:58:15.142Z,26.72
2018-07-09T12:59:24.298Z,26.66
2018-07-09T13:00:33.453Z,26.6
2018-07-09T13:01:43.180Z,26.65
2018-07-09T13:02:53.040Z,26.63
2018-07-09T13:04:01.962Z,26.65
2018-07-09T13:05:10.600Z,26.73
2018-07-09T13:06:20.021Z,26.63
2018-07-09T13:07:29.450Z,26.69
2018-07-09T13:08:39.136Z,26.7
2018-07-09T13:09:48.551Z,26.63
2018-07-09T13:10:57.701Z,26.63
2018-07-09T13:12:07.636Z,26.6
2018-07-09T13:13:16.819Z,26.76
2018-07-09T13:14:26.255Z,26.62
2018-07-09T13:15:36.122Z,26.63
2018-07-09T13:16:45.283Z,26.66
2018-07-09T13:17:54.454Z,26.67
2018-07-09T13:19:03.627Z,26.66
2018-07-09T13:20:12.782Z,26.67
2018-07-09T13:21:21.447Z,26.63
2018-07-09T13:22:31.142Z,26.65
2018-07-09T13:23:40.286Z,26.62
2018-07-09T13:24:49.710Z,26.62
2018-07-09T13:25:59.113Z,26.6
2018-07-09T13:27:08.535Z,26.66
2018-07-09T13:28:17.941Z,26.66
2018-07-09T13:29:27.376Z,26.75
2018-07-09T13:30:36.312Z,26.66
2018-07-09T13:31:45.981Z,26.75
2018-07-09T13:32:55.163Z,26.63
2018-07-09T13:34:04.588Z,26.75
2018-07-09T13:35:14.025Z,26.66
2018-07-09T13:36:23.440Z,26.69
2018-07-09T13:37:32.860Z,26.72
2018-07-09T13:38:41.776Z,26.77
2018-07-09T13:39:51.198Z,26.7
2018-07-09T13:41:00.886Z,26.76
2018-07-09T13:42:09.526Z,26.72
2018-07-09T13:43:19.483Z,26.73
2018-07-09T13:44:29.204Z,26.73
2018-07-09T13:45:38.630Z,26.76
2018-07-09T13:46:48.042Z,26.73
2018-07-09T13:47:57.469Z,26.81
2018-07-09T13:49:07.096Z,26.73
2018-07-09T13:50:17.229Z,26.8
2018-07-09T13:51:26.654Z,26.72
2018-07-09T13:52:36.337Z,26.77
2018-07-09T13:53:46.048Z,26.66
2018-07-09T13:54:54.978Z,26.62
2018-07-09T13:56:04.397Z,26.7
2018-07-09T13:57:13.825Z,26.67
2018-07-09T13:58:23.498Z,26.75
2018-07-09T13:59:32.905Z,26.75
2018-07-09T14:00:42.590Z,26.69
2018-07-09T14:01:52.264Z,26.77
2018-07-09T14:03:01.428Z,26.75
2018-07-09T14:04:10.883Z,26.7
2018-07-09T14:05:20.781Z,26.7
2018-07-09T14:06:30.199Z,26.72
2018-07-09T14:07:39.869Z,26.73
2018-07-09T14:08:49.806Z,26.7
2018-07-09T14:09:59.228Z,26.75
2018-07-09T14:11:08.656Z,26.77
2018-07-09T14:12:18.322Z,26.75
2018-07-09T14:13:27.487Z,26.7
2018-07-09T14:14:36.924Z,26.72
2018-07-09T14:15:46.609Z,26.76
2018-07-09T14:16:56.026Z,26.75
2018-07-09T14:18:05.966Z,26.77
2018-07-09T14:19:15.392Z,26.72
2018-07-09T14:20:25.064Z,26.8
2018-07-09T14:21:34.479Z,26.76
2018-07-09T14:22:43.912Z,26.72
2018-07-09T14:23:53.330Z,26.8
2018-07-09T14:25:02.793Z,26.8
2018-07-09T14:26:12.210Z,26.76
2018-07-09T14:27:21.879Z,26.73
2018-07-09T14:28:31.319Z,26.8
2018-07-09T14:29:40.844Z,26.82
2018-07-09T14:30:50.576Z,26.82
2018-07-09T14:31:59.999Z,26.8
2018-07-09T14:33:09.692Z,26.8
2018-07-09T14:34:19.124Z,26.77
2018-07-09T14:35:27.773Z,26.76
2018-07-09T14:36:36.947Z,26.77
2018-07-09T14:37:46.112Z,26.77
2018-07-09T14:38:55.568Z,26.75
2018-07-09T14:40:04.990Z,26.75
2018-07-09T14:41:14.392Z,26.85
2018-07-09T14:42:23.797Z,26.81
2018-07-09T14:43:33.735Z,26.84
2018-07-09T14:44:43.163Z,26.75
2018-07-09T14:45:52.849Z,26.75
2018-07-09T14:47:02.509Z,26.75
2018-07-09T14:48:11.937Z,26.85
2018-07-09T14:49:21.872Z,26.75
2018-07-09T14:50:31.046Z,26.77
2018-07-09T14:51:40.877Z,26.87
2018-07-09T14:52:51.135Z,26.77
2018-07-09T14:54:00.812Z,26.76
2018-07-09T14:55:09.986Z,26.84
2018-07-09T14:56:19.389Z,26.85
2018-07-09T14:57:28.557Z,26.75
2018-07-09T14:58:38.241Z,26.77